Time;durP1;ratioP1;P1;durP2;ratioP2;P2;SDS_P1;SDS_P2;PMS_P1;PMS_P2;Temp;Humidity;BMP_temperature;BMP_pressure;BME280_temperature;BME280_humidity;BME280_pressure;Samples;Min_cycle;Max_cycle;Signal;HPM_P1;HPM_P2
2022/05/10 00:02:05;;;;;;;5.33;3.73;;;;;;;15.60;100.00;99573.72;5001443;28;20209;-80
2022/05/10 00:04:34;;;;;;;5.83;4.43;;;;;;;15.53;100.00;99577.78;5008084;28;20218;-80
2022/05/10 00:07:03;;;;;;;4.27;3.87;;;;;;;15.67;100.00;99580.28;5006620;28;20233;-80
2022/05/10 00:09:31;;;;;;;5.57;4.50;;;;;;;15.67;100.00;99574.94;5005652;28;20491;-79
2022/05/10 00:12:00;;;;;;;5.17;4.20;;;;;;;15.55;100.00;99569.69;5006230;28;20218;-79
2022/05/10 00:14:30;;;;;;;5.27;4.50;;;;;;;15.41;100.00;99573.41;5014259;28;20203;-79
2022/05/10 00:17:01;;;;;;;7.33;4.47;;;;;;;15.50;100.00;99566.50;5050104;28;20205;-80
2022/05/10 00:19:31;;;;;;;4.73;4.30;;;;;;;15.14;100.00;99566.53;5050244;28;20197;-79
2022/05/10 00:22:01;;;;;;;5.07;3.97;;;;;;;14.97;100.00;99568.81;5004904;28;20208;-79
2022/05/10 00:24:32;;;;;;;6.00;4.90;;;;;;;15.07;100.00;99567.16;5018982;28;20220;-79
2022/05/10 00:27:01;;;;;;;6.30;4.63;;;;;;;15.01;100.00;99560.44;5126672;27;20268;-79
2022/05/10 00:29:30;;;;;;;4.37;3.97;;;;;;;14.96;100.00;99561.75;5094504;27;20209;-79
2022/05/10 00:32:00;;;;;;;6.47;4.27;;;;;;;14.89;100.00;99558.72;5129094;27;20217;-79
2022/05/10 00:34:31;;;;;;;6.50;4.70;;;;;;;14.91;100.00;99564.78;5123901;27;20198;-79
2022/05/10 00:37:02;;;;;;;5.73;4.40;;;;;;;14.92;100.00;99565.63;5133203;27;20186;-79
2022/05/10 00:39:33;;;;;;;7.40;4.30;;;;;;;14.75;100.00;99569.56;5132141;27;20190;-79
2022/05/10 00:42:07;;;;;;;4.60;4.03;;;;;;;14.85;100.00;99563.41;5082851;27;20194;-79
2022/05/10 00:44:41;;;;;;;5.63;4.20;;;;;;;14.78;100.00;99559.53;5124808;27;20205;-79
2022/05/10 00:47:16;;;;;;;5.60;4.00;;;;;;;14.67;100.00;99554.16;5130510;27;20209;-80
2022/05/10 00:49:56;;;;;;;6.47;4.37;;;;;;;14.72;100.00;99557.31;5136806;27;20194;-79
2022/05/10 00:52:30;;;;;;;5.13;3.73;;;;;;;14.73;100.00;99555.50;5133423;27;20217;-79
2022/05/10 00:55:07;;;;;;;4.83;3.73;;;;;;;14.66;100.00;99556.91;5133668;27;20194;-79
2022/05/10 00:57:43;;;;;;;7.57;4.00;;;;;;;14.68;100.00;99547.00;5131567;27;20186;-80
2022/05/10 01:00:15;;;;;;;4.73;4.23;;;;;;;14.68;100.00;99555.00;5129240;27;20205;-79
2022/05/10 01:02:54;;;;;;;5.23;4.73;;;;;;;14.72;100.00;99546.66;5127686;27;20204;-79
2022/05/10 01:05:33;;;;;;;4.80;4.20;;;;;;;14.75;100.00;99549.06;5131550;27;20197;-79
2022/05/10 01:08:11;;;;;;;4.90;4.40;;;;;;;14.33;100.00;99542.41;5081840;27;20245;-79
2022/05/10 01:10:48;;;;;;;7.23;4.43;;;;;;;14.46;100.00;99537.06;5068780;28;20283;-79
2022/05/10 01:13:29;;;;;;;6.53;4.90;;;;;;;14.57;100.00;99539.78;5068107;28;20207;-79
2022/05/10 01:16:05;;;;;;;4.87;4.47;;;;;;;14.60;100.00;99539.56;5063208;28;20207;-79
2022/05/10 01:18:34;;;;;;;4.73;4.13;;;;;;;14.43;100.00;99545.25;5060767;28;20663;-79
2022/05/10 01:21:24;;;;;;;6.00;4.20;;;;;;;14.26;100.00;99549.16;5064997;28;20222;-79
2022/05/10 01:24:41;;;;;;;5.53;4.60;;;;;;;14.20;100.00;99534.47;5067403;28;20197;-79
2022/05/10 01:27:42;;;;;;;7.30;4.83;;;;;;;14.12;100.00;99536.00;5041722;28;20229;-79
2022/05/10 01:30:16;;;;;;;5.03;4.30;;;;;;;14.09;100.00;99533.53;5099887;28;20594;-79
2022/05/10 01:35:43;;;;;;;6.20;3.93;;;;;;;13.93;100.00;99528.47;5115606;28;20187;-79
2022/05/10 01:38:31;;;;;;;4.97;4.40;;;;;;;13.97;100.00;99528.13;5107746;28;20205;-79
2022/05/10 01:41:13;;;;;;;4.73;4.30;;;;;;;13.95;100.00;99527.41;5107101;28;20203;-80
2022/05/10 01:43:48;;;;;;;4.97;4.43;;;;;;;13.96;100.00;99525.59;5109281;28;20207;-79
2022/05/10 01:46:25;;;;;;;6.47;4.40;;;;;;;13.95;100.00;99516.75;5115117;28;20663;-79
2022/05/10 01:49:02;;;;;;;5.57;4.10;;;;;;;14.02;100.00;99511.84;5106763;28;20207;-80
2022/05/10 01:51:36;;;;;;;5.80;4.40;;;;;;;13.96;100.00;99514.94;5080813;28;20219;-79
2022/05/10 01:54:13;;;;;;;5.70;4.40;;;;;;;13.89;100.00;99516.34;5116604;28;20191;-79
2022/05/10 01:56:44;;;;;;;4.30;3.90;;;;;;;13.77;100.00;99515.41;5116020;28;20203;-79
2022/05/10 01:59:13;;;;;;;6.23;4.50;;;;;;;13.88;100.00;99512.81;5115192;28;20199;-79
2022/05/10 02:01:46;;;;;;;5.63;4.13;;;;;;;14.04;100.00;99510.75;5109949;28;20195;-79
2022/05/10 02:04:25;;;;;;;5.20;4.47;;;;;;;14.08;100.00;99511.38;5111865;28;20241;-79
2022/05/10 02:07:01;;;;;;;4.53;4.13;;;;;;;14.15;100.00;99517.97;5066943;28;20270;-79
2022/05/10 02:09:35;;;;;;;6.20;4.20;;;;;;;14.04;100.00;99501.91;5069377;28;20210;-79
2022/05/10 02:12:11;;;;;;;4.77;4.30;;;;;;;13.83;100.00;99511.47;5068372;28;20220;-79
2022/05/10 02:14:44;;;;;;;4.77;4.37;;;;;;;13.85;100.00;99513.06;5067309;28;20188;-80
2022/05/10 02:17:17;;;;;;;7.90;4.80;;;;;;;13.76;100.00;99513.72;5063905;28;20211;-79
2022/05/10 02:19:51;;;;;;;5.07;4.47;;;;;;;13.88;100.00;99506.66;5071564;28;20267;-79
2022/05/10 02:22:29;;;;;;;4.87;4.30;;;;;;;13.66;100.00;99510.00;5067577;28;20203;-82
2022/05/10 02:25:03;;;;;;;5.10;4.60;;;;;;;13.55;100.00;99504.59;5038281;28;20206;-79
2022/05/10 02:27:39;;;;;;;5.63;4.90;;;;;;;13.62;100.00;99509.38;5134655;27;20202;-79
2022/05/10 02:30:11;;;;;;;5.27;4.77;;;;;;;13.60;100.00;99513.09;5131831;27;20201;-79
2022/05/10 02:35:46;;;;;;;5.30;4.80;;;;;;;13.46;100.00;99516.72;5098175;27;20190;-79
2022/05/10 02:38:17;;;;;;;5.73;4.90;;;;;;;13.15;100.00;99520.63;5110734;27;20201;-79
2022/05/10 02:40:47;;;;;;;6.33;4.30;;;;;;;13.15;100.00;99513.50;5128866;27;20191;-79
2022/05/10 02:43:26;;;;;;;5.00;4.50;;;;;;;13.24;100.00;99524.50;5127421;27;20241;-79
2022/05/10 02:45:55;;;;;;;6.50;4.73;;;;;;;13.12;100.00;99528.81;5123554;27;20194;-79
2022/05/10 02:48:29;;;;;;;5.03;4.53;;;;;;;12.99;100.00;99518.16;5125465;27;20205;-79
2022/05/10 02:50:58;;;;;;;7.80;5.27;;;;;;;13.06;100.00;99516.81;5134458;27;20276;-79
2022/05/10 02:53:29;;;;;;;8.77;5.77;;;;;;;13.17;100.00;99516.06;5091878;27;20225;-79
2022/05/10 02:56:02;;;;;;;6.57;5.87;;;;;;;13.11;100.00;99514.66;5071211;28;20196;-79
2022/05/10 02:58:38;;;;;;;6.73;5.27;;;;;;;13.09;100.00;99508.59;5064076;28;20189;-79
2022/05/10 03:01:12;;;;;;;5.80;4.80;;;;;;;13.11;100.00;99508.50;5068886;28;20196;-79
2022/05/10 03:03:43;;;;;;;6.57;5.20;;;;;;;13.14;100.00;99502.97;5067119;28;20650;-79
2022/05/10 03:06:15;;;;;;;5.23;4.63;;;;;;;13.19;100.00;99508.84;4952969;29;20684;-79
2022/05/10 03:08:46;;;;;;;6.83;5.23;;;;;;;12.99;100.00;99504.03;4952937;29;20203;-79
2022/05/10 03:11:15;;;;;;;5.77;5.17;;;;;;;12.87;100.00;99492.44;4948316;29;20284;-78
2022/05/10 03:13:47;;;;;;;7.70;5.47;;;;;;;13.08;100.00;99509.56;4970643;28;20245;-79
2022/05/10 03:16:25;;;;;;;6.20;5.60;;;;;;;13.04;100.00;99505.44;5011156;28;20194;-79
2022/05/10 03:18:57;;;;;;;9.87;6.23;;;;;;;13.05;100.00;99507.13;4927390;29;20205;-78
2022/05/10 03:21:26;;;;;;;6.07;5.47;;;;;;;13.04;100.00;99505.44;4933841;29;20759;-78
2022/05/10 03:23:56;;;;;;;6.03;5.43;;;;;;;12.78;100.00;99507.19;4964910;28;20227;-79
2022/05/10 03:26:26;;;;;;;5.73;5.13;;;;;;;12.89;100.00;99496.66;5044525;28;20228;-79
2022/05/10 03:28:59;;;;;;;5.40;4.90;;;;;;;12.87;100.00;99489.75;5045776;28;20193;-79
2022/05/10 03:31:30;;;;;;;6.80;5.53;;;;;;;12.78;100.00;99488.56;5050713;28;20192;-79
2022/05/10 03:36:48;;;;;;;6.80;5.63;;;;;;;12.95;100.00;99490.09;5050527;28;20191;-78
2022/05/10 03:39:16;;;;;;;5.70;5.10;;;;;;;12.98;100.00;99486.38;5050482;28;20189;-79
2022/05/10 03:41:45;;;;;;;6.50;5.10;;;;;;;13.14;100.00;99492.34;4995399;28;20228;-79
2022/05/10 03:44:13;;;;;;;6.53;5.23;;;;;;;13.13;100.00;99483.50;5048151;28;20224;-78
2022/05/10 03:46:46;;;;;;;6.57;4.83;;;;;;;13.14;100.00;99485.22;5049879;28;20197;-79
2022/05/10 03:49:17;;;;;;;5.80;5.17;;;;;;;12.96;100.00;99486.47;5062882;28;20195;-79
2022/05/10 03:51:48;;;;;;;6.73;5.27;;;;;;;13.04;100.00;99481.50;5111682;28;20229;-78
2022/05/10 03:54:17;;;;;;;6.27;4.97;;;;;;;12.98;100.00;99479.25;5113172;28;20215;-79
2022/05/10 03:56:45;;;;;;;6.20;5.60;;;;;;;13.05;100.00;99479.69;5113064;28;20187;-78
2022/05/10 03:59:14;;;;;;;10.40;5.50;;;;;;;12.98;100.00;99487.22;5109461;28;20658;-79
2022/05/10 04:01:42;;;;;;;7.07;5.30;;;;;;;12.92;100.00;99486.78;5101721;28;20199;-81
2022/05/10 04:04:11;;;;;;;6.47;5.43;;;;;;;12.96;100.00;99493.59;5103589;28;20666;-79
2022/05/10 04:06:41;;;;;;;6.97;5.20;;;;;;;12.73;100.00;99487.19;5112464;28;20199;-79
2022/05/10 04:09:10;;;;;;;6.17;5.57;;;;;;;12.72;100.00;99488.13;5030927;28;20201;-80
2022/05/10 04:11:38;;;;;;;6.70;5.23;;;;;;;12.87;100.00;99487.97;4936658;29;20198;-79
2022/05/10 04:14:07;;;;;;;6.50;5.80;;;;;;;12.87;100.00;99482.63;4928988;29;20225;-79
2022/05/10 04:16:36;;;;;;;6.13;5.53;;;;;;;12.95;100.00;99486.59;4931602;29;20212;-79
2022/05/10 04:19:05;;;;;;;6.30;5.17;;;;;;;12.99;100.00;99480.94;4932742;29;20640;-79
2022/05/10 04:21:34;;;;;;;5.77;5.17;;;;;;;12.98;100.00;99481.91;4933458;29;20201;-79
2022/05/10 04:24:04;;;;;;;9.27;5.27;;;;;;;12.79;100.00;99484.97;4933578;29;20205;-79
2022/05/10 04:26:34;;;;;;;7.60;5.60;;;;;;;12.86;100.00;99486.25;4960359;28;20236;-79
2022/05/10 04:29:04;;;;;;;6.77;5.60;;;;;;;12.92;100.00;99489.44;5045443;28;20198;-79
2022/05/10 04:31:32;;;;;;;6.93;5.13;;;;;;;12.86;100.00;99488.06;5118368;28;20199;-79
2022/05/10 04:34:03;;;;;;;5.47;4.97;;;;;;;12.99;100.00;99485.41;5112599;28;20348;-79
2022/05/10 04:36:32;;;;;;;7.80;5.73;;;;;;;13.03;100.00;99490.44;5108446;28;20642;-79
2022/05/10 04:39:01;;;;;;;8.13;5.87;;;;;;;13.15;100.00;99489.56;5064307;28;20197;-79
2022/05/10 04:41:33;;;;;;;6.90;6.20;;;;;;;13.09;100.00;99495.31;5109688;28;20236;-79
2022/05/10 04:44:05;;;;;;;7.40;5.70;;;;;;;13.17;100.00;99495.63;5116491;28;20217;-79
2022/05/10 04:46:35;;;;;;;8.57;5.73;;;;;;;13.23;100.00;99494.41;5109098;28;20282;-79
2022/05/10 04:49:05;;;;;;;6.40;5.80;;;;;;;13.28;100.00;99496.72;5112536;28;20274;-79
2022/05/10 04:51:36;;;;;;;9.47;6.17;;;;;;;13.43;100.00;99501.84;5113281;28;20198;-79
2022/05/10 04:54:05;;;;;;;5.87;5.27;;;;;;;13.47;100.00;99489.16;5107009;28;20665;-79
2022/05/10 04:56:34;;;;;;;5.47;4.97;;;;;;;13.62;100.00;99497.88;5111060;28;20187;-79
2022/05/10 04:59:03;;;;;;;6.53;5.60;;;;;;;13.56;100.00;99499.16;5050651;28;20204;-80
2022/05/10 05:01:33;;;;;;;6.60;5.30;;;;;;;13.74;100.00;99497.84;5050693;28;20416;-80
2022/05/10 05:04:02;;;;;;;6.60;5.70;;;;;;;13.58;100.00;99502.53;5045603;28;20209;-79
2022/05/10 05:06:33;;;;;;;8.33;6.20;;;;;;;13.71;100.00;99499.88;5045670;28;20228;-79
2022/05/10 05:09:02;;;;;;;6.83;6.13;;;;;;;13.66;100.00;99500.19;5050298;28;20201;-79
2022/05/10 05:11:30;;;;;;;6.83;6.13;;;;;;;13.74;100.00;99497.84;5047959;28;20188;-79
2022/05/10 05:14:00;;;;;;;7.03;5.87;;;;;;;13.81;100.00;99503.59;5047585;28;20224;-79
2022/05/10 05:16:29;;;;;;;8.37;6.40;;;;;;;13.77;100.00;99498.59;5058867;28;20363;-79
2022/05/10 05:18:57;;;;;;;8.20;6.20;;;;;;;13.84;100.00;99498.03;5075979;28;20196;-79
2022/05/10 05:21:26;;;;;;;9.17;6.47;;;;;;;13.97;100.00;99505.97;5080272;28;20194;-80
2022/05/10 05:23:56;;;;;;;6.57;5.97;;;;;;;14.01;100.00;99504.81;5105016;28;20195;-79
2022/05/10 05:26:27;;;;;;;7.10;6.33;;;;;;;14.21;100.00;99498.03;5120409;27;20230;-79
2022/05/10 05:28:56;;;;;;;8.40;6.30;;;;;;;14.29;100.00;99499.16;5127154;27;20206;-79
2022/05/10 05:31:27;;;;;;;7.07;6.13;;;;;;;14.43;100.00;99502.63;5130242;27;20206;-79
2022/05/10 05:33:56;;;;;;;9.90;6.30;;;;;;;14.54;100.00;99495.53;5131435;27;20214;-79
2022/05/10 05:36:24;;;;;;;10.67;6.60;;;;;;;14.64;100.00;99493.03;5136125;27;20195;-79
2022/05/10 05:38:53;;;;;;;18.23;6.37;;;;;;;14.63;100.00;99499.34;5128980;27;20190;-80
2022/05/10 05:41:21;;;;;;;19.60;6.53;;;;;;;14.63;100.00;99499.34;5123712;27;20202;-80
2022/05/10 05:43:49;;;;;;;16.27;6.20;;;;;;;14.65;100.00;99492.06;5132053;27;20205;-79
2022/05/10 05:46:18;;;;;;;12.43;6.33;;;;;;;14.93;100.00;99496.16;5130264;27;20206;-80
2022/05/10 05:48:49;;;;;;;13.53;6.33;;;;;;;14.90;100.00;99501.75;5134876;27;20186;-80
2022/05/10 05:51:17;;;;;;;11.97;6.00;;;;;;;14.87;100.00;99500.16;5126276;27;20194;-80
2022/05/10 05:53:46;;;;;;;10.97;5.90;;;;;;;15.11;100.00;99493.91;5128287;27;20676;-80
2022/05/10 05:56:16;;;;;;;8.63;6.20;;;;;;;15.11;100.00;99491.22;5126522;27;20269;-79
2022/05/10 05:58:45;;;;;;;8.53;6.10;;;;;;;15.03;100.00;99493.63;5032112;28;20205;-80
2022/05/10 06:01:19;;;;;;;12.30;6.23;;;;;;;15.15;100.00;99493.56;5030189;28;20190;-79
2022/05/10 06:03:51;;;;;;;10.97;6.37;;;;;;;15.37;100.00;99490.06;5019870;28;20198;-80
2022/05/10 06:06:21;;;;;;;11.23;6.43;;;;;;;15.35;100.00;99483.16;5028146;28;20209;-80
2022/05/10 06:08:50;;;;;;;9.87;6.20;;;;;;;15.56;100.00;99485.94;5029442;28;20719;-80
2022/05/10 06:11:20;;;;;;;8.33;6.20;;;;;;;15.69;100.00;99489.34;5026121;28;20622;-80
2022/05/10 06:13:48;;;;;;;9.30;6.60;;;;;;;15.77;100.00;99499.44;5029612;28;20214;-80
2022/05/10 06:16:17;;;;;;;12.87;6.60;;;;;;;15.93;100.00;99497.25;5037252;28;20223;-79
2022/05/10 06:18:45;;;;;;;7.77;6.50;;;;;;;15.99;100.00;99492.22;5063419;28;20200;-80
2022/05/10 06:21:17;;;;;;;10.90;6.23;;;;;;;16.16;100.00;99490.00;5072011;28;20222;-80
2022/05/10 06:23:46;;;;;;;7.23;6.10;;;;;;;16.28;100.00;99483.66;5066726;28;20278;-81
2022/05/10 06:26:15;;;;;;;7.70;5.93;;;;;;;16.57;100.00;99483.91;5069281;28;20254;-80
2022/05/10 06:28:43;;;;;;;8.83;5.77;;;;;;;16.62;100.00;99484.38;5067057;28;20774;-80
2022/05/10 06:31:11;;;;;;;8.37;5.57;;;;;;;16.83;100.00;99487.97;5126133;27;20198;-80
2022/05/10 06:33:42;;;;;;;7.60;5.43;;;;;;;16.89;100.00;99481.25;5130739;27;20262;-79
2022/05/10 06:36:10;;;;;;;8.07;5.50;;;;;;;17.10;100.00;99487.44;5124055;27;20665;-80
2022/05/10 06:38:41;;;;;;;6.93;5.70;;;;;;;17.27;100.00;99483.28;5127944;27;20191;-80
2022/05/10 06:41:09;;;;;;;7.90;6.10;;;;;;;16.94;100.00;99483.53;5129514;27;20193;-80
2022/05/10 06:43:41;;;;;;;8.60;5.80;;;;;;;17.02;100.00;99481.91;5129130;27;20285;-80
2022/05/10 06:46:10;;;;;;;5.87;5.37;;;;;;;17.25;100.00;99490.63;5131267;27;20194;-79
2022/05/10 06:48:39;;;;;;;6.23;5.60;;;;;;;17.02;100.00;99483.72;5126270;27;20198;-80
2022/05/10 06:51:09;;;;;;;8.13;6.00;;;;;;;17.47;100.00;99489.63;5123852;27;20239;-80
2022/05/10 06:53:37;;;;;;;7.30;5.53;;;;;;;17.54;100.00;99481.88;5125459;27;20190;-80
2022/05/10 06:56:09;;;;;;;8.40;5.73;;;;;;;17.80;100.00;99484.97;5129081;27;20200;-79
2022/05/10 06:58:38;;;;;;;5.50;5.00;;;;;;;18.22;100.00;99473.06;5131477;27;20258;-80
2022/05/10 07:01:11;;;;;;;6.50;4.97;;;;;;;18.48;100.00;99467.19;5124408;27;20208;-80
2022/05/10 07:03:47;;;;;;;5.80;5.17;;;;;;;18.52;100.00;99458.69;5064318;28;20204;-80
2022/05/10 07:06:17;;;;;;;6.40;4.97;;;;;;;18.59;100.00;99458.97;4991515;28;20291;-80
2022/05/10 07:08:46;;;;;;;5.80;4.13;;;;;;;18.26;100.00;99452.22;4988486;28;20286;-80
2022/05/10 07:11:16;;;;;;;4.43;3.90;;;;;;;18.09;100.00;99447.53;4953769;28;20219;-80
2022/05/10 07:13:45;;;;;;;5.37;3.53;;;;;;;18.46;100.00;99455.75;4977490;28;20199;-80
2022/05/10 07:16:17;;;;;;;4.70;3.70;;;;;;;18.30;100.00;99449.09;4981250;28;20192;-80
2022/05/10 07:18:46;;;;;;;4.33;3.47;;;;;;;18.28;100.00;99453.75;4983210;28;20203;-80
2022/05/10 07:21:16;;;;;;;4.37;3.37;;;;;;;18.67;100.00;99450.25;4990542;28;20202;-79
2022/05/10 07:23:45;;;;;;;4.33;3.27;;;;;;;18.02;100.00;99455.25;4961321;28;20198;-80
2022/05/10 07:26:14;;;;;;;4.37;3.83;;;;;;;18.07;100.00;99454.88;4929030;29;20252;-80
2022/05/10 07:28:44;;;;;;;5.77;3.83;;;;;;;18.03;100.00;99455.13;4924755;29;20205;-80
2022/05/10 07:31:14;;;;;;;3.77;3.27;;;;;;;18.09;100.00;99453.72;4927680;29;20653;-80
2022/05/10 07:33:43;;;;;;;5.90;3.40;;;;;;;18.12;100.00;99457.97;4930279;28;20193;-80
2022/05/10 07:36:33;;;;;;;5.67;3.30;;;;;;;18.36;100.00;99455.75;4970414;28;20223;-79
2022/05/10 07:39:03;;;;;;;6.03;3.43;;;;;;;18.81;100.00;99452.50;4969354;28;20227;-79
2022/05/10 07:41:32;;;;;;;4.73;3.17;;;;;;;18.89;100.00;99455.31;4993798;28;20185;-79
2022/05/10 07:44:02;;;;;;;6.37;3.73;;;;;;;18.31;100.00;99452.63;5044395;28;20201;-79
2022/05/10 07:46:34;;;;;;;6.27;3.57;;;;;;;18.68;100.00;99454.63;5046121;28;20300;-80
2022/05/10 07:49:06;;;;;;;3.43;3.13;;;;;;;18.78;100.00;99453.63;4988236;28;20195;-80
2022/05/10 07:51:35;;;;;;;6.17;3.60;;;;;;;18.53;100.00;99455.06;5026286;28;20288;-79
2022/05/10 07:54:03;;;;;;;4.20;3.30;;;;;;;18.45;100.00;99446.84;4986157;28;20202;-79
2022/05/10 07:56:32;;;;;;;4.17;3.33;;;;;;;18.88;100.00;99446.41;4985254;28;20195;-80
2022/05/10 07:59:05;;;;;;;4.60;3.80;;;;;;;18.59;100.00;99450.94;4985385;28;20206;-79
2022/05/10 08:01:34;;;;;;;5.67;3.67;;;;;;;18.85;100.00;99446.72;4990667;28;20259;-80
2022/05/10 08:04:03;;;;;;;4.63;3.20;;;;;;;19.09;100.00;99440.84;4987359;28;20269;-80
2022/05/10 08:06:32;;;;;;;5.47;3.80;;;;;;;19.11;100.00;99440.72;4955886;28;20193;-80
2022/05/10 08:09:01;;;;;;;4.00;3.60;;;;;;;19.10;100.00;99439.00;4949969;28;20201;-80
2022/05/10 08:11:29;;;;;;;4.20;3.60;;;;;;;19.21;100.00;99443.41;4952036;28;20200;-80
2022/05/10 08:14:05;;;;;;;3.70;3.40;;;;;;;19.54;100.00;99436.59;4951745;28;20204;-80
2022/05/10 08:16:34;;;;;;;5.13;3.57;;;;;;;19.90;100.00;99438.44;4952599;28;20223;-80
2022/05/10 08:19:03;;;;;;;4.33;3.67;;;;;;;20.45;100.00;99438.34;4986251;28;20218;-80
2022/05/10 08:21:31;;;;;;;6.77;3.50;;;;;;;20.76;100.00;99436.09;5007507;28;20198;-80
2022/05/10 08:24:00;;;;;;;5.60;3.50;;;;;;;20.91;100.00;99436.38;5014327;28;20211;-81
2022/05/10 08:26:29;;;;;;;3.67;3.37;;;;;;;21.33;100.00;99424.91;5078343;28;20214;-80
2022/05/10 08:28:59;;;;;;;3.87;3.47;;;;;;;21.22;100.00;99423.25;5124176;28;20205;-80
2022/05/10 08:31:29;;;;;;;6.67;3.50;;;;;;;21.08;100.00;99434.63;5121021;27;20202;-80
2022/05/10 08:33:59;;;;;;;4.57;3.47;;;;;;;20.92;100.00;99435.34;5130816;27;20194;-80
2022/05/10 08:36:28;;;;;;;6.77;3.80;;;;;;;20.94;100.00;99427.13;5127708;27;20225;-80
2022/05/10 08:38:56;;;;;;;4.77;3.23;;;;;;;20.76;100.00;99425.31;5133742;27;20251;-80
2022/05/10 08:41:30;;;;;;;5.63;3.63;;;;;;;20.85;100.00;99419.00;5122270;27;20194;-80
2022/05/10 08:44:07;;;;;;;3.78;3.38;;;;;;;21.09;100.00;99428.25;5137651;27;20201;-81
2022/05/10 08:46:41;;;;;;;4.27;3.87;;;;;;;20.83;100.00;99426.38;5133089;27;20194;-81
2022/05/10 08:49:19;;;;;;;6.70;3.27;;;;;;;20.85;100.00;99428.94;5132863;27;20181;-80
2022/05/10 08:51:48;;;;;;;6.67;3.50;;;;;;;20.82;100.00;99410.38;5129946;27;20209;-80
2022/05/10 08:54:17;;;;;;;5.32;3.58;;;;;;;20.54;100.00;99421.25;5136794;27;20277;-80
2022/05/10 08:56:49;;;;;;;6.53;3.73;;;;;;;20.55;100.00;99422.09;5130381;27;20246;-80
2022/05/10 08:59:34;;;;;;;6.17;4.20;;;;;;;20.83;100.00;99412.91;4994179;28;20199;-80
2022/05/10 09:02:12;;;;;;;9.13;4.43;;;;;;;20.82;100.00;99421.16;4987421;28;20239;-81
2022/05/10 09:04:52;;;;;;;6.00;4.63;;;;;;;20.80;100.00;99413.22;4988648;28;20199;-80
2022/05/10 09:07:33;;;;;;;6.67;4.47;;;;;;;21.02;100.00;99417.25;4992641;28;20191;-81
2022/05/10 09:10:04;;;;;;;7.40;5.17;;;;;;;20.76;100.00;99411.88;4985997;28;20229;-80
2022/05/10 09:12:44;;;;;;;5.70;5.07;;;;;;;20.97;100.00;99414.19;4988621;28;20194;-80
2022/05/10 09:15:14;;;;;;;9.93;4.97;;;;;;;21.42;100.00;99405.03;4935897;29;20220;-81
2022/05/10 09:17:45;;;;;;;7.97;5.10;;;;;;;21.72;100.00;99403.66;4999764;28;20282;-80
2022/05/10 09:20:14;;;;;;;7.43;4.60;;;;;;;21.96;100.00;99392.09;4993906;28;20226;-81
2022/05/10 09:23:14;;;;;;;5.60;4.85;;;;;;;21.68;100.00;99402.28;4994097;28;20253;-80
2022/05/10 09:25:45;;;;;;;8.90;5.00;;;;;;;21.37;100.00;99393.91;4992404;28;20313;-81
2022/05/10 09:28:28;;;;;;;7.03;5.40;;;;;;;21.37;100.00;99389.34;4993870;28;20226;-81
2022/05/10 09:37:21;;;;;;;6.10;4.40;;;;;;;22.63;100.00;99373.94;4989652;28;20250;-80
2022/05/10 09:40:02;;;;;;;5.85;4.30;;;;;;;22.85;100.00;99370.56;5050098;28;20205;-81
2022/05/10 09:42:35;;;;;;;6.57;4.80;;;;;;;23.27;100.00;99366.75;5048547;28;20233;-81
2022/05/10 09:45:07;;;;;;;5.53;4.60;;;;;;;23.47;100.00;99369.06;5052985;28;20224;-81
2022/05/10 09:47:36;;;;;;;5.03;4.25;;;;;;;23.88;99.27;99369.72;5131837;27;20677;-80
2022/05/10 09:50:20;;;;;;;6.70;4.25;;;;;;;23.80;98.44;99372.47;5133389;27;20229;-81
2022/05/10 09:52:49;;;;;;;5.25;4.25;;;;;;;23.73;97.72;99372.31;5129048;27;20205;-81
2022/05/10 09:55:27;;;;;;;5.75;4.30;;;;;;;23.75;99.46;99362.19;5130469;27;20323;-81
2022/05/10 09:57:59;;;;;;;5.57;4.50;;;;;;;24.05;100.00;99365.03;5135753;27;20656;-80
2022/05/10 10:00:42;;;;;;;9.68;4.28;;;;;;;23.75;100.00;99369.47;5133091;27;20194;-81
2022/05/10 10:03:22;;;;;;;7.53;4.63;;;;;;;24.06;100.00;99355.91;5127788;27;20190;-80
2022/05/10 10:05:54;;;;;;;5.20;4.70;;;;;;;24.45;97.49;99351.22;5129702;27;20190;-81
2022/05/10 10:08:42;;;;;;;6.30;4.53;;;;;;;24.56;93.26;99358.06;5131634;27;20198;-80
2022/05/10 10:11:29;;;;;;;6.30;4.57;;;;;;;24.81;93.50;99353.28;5125956;27;20202;-80
2022/05/10 10:14:01;;;;;;;7.75;4.97;;;;;;;25.06;93.98;99352.00;5131214;27;20720;-80
2022/05/10 10:16:34;;;;;;;6.57;4.88;;;;;;;24.48;96.35;99361.69;5124421;27;20301;-81
2022/05/10 10:19:06;;;;;;;6.40;4.45;;;;;;;24.97;94.56;99350.38;5128853;27;20194;-81
2022/05/10 10:21:45;;;;;;;5.43;4.93;;;;;;;25.40;93.99;99348.72;5129850;27;20190;-80
2022/05/10 10:24:23;;;;;;;5.82;4.68;;;;;;;24.98;95.56;99353.91;5130029;27;20191;-81
2022/05/10 10:26:58;;;;;;;5.88;4.93;;;;;;;24.32;99.58;99337.47;5128775;27;20222;-80
2022/05/10 10:29:40;;;;;;;6.75;4.75;;;;;;;25.01;100.00;99343.56;5131387;27;20230;-80
2022/05/10 10:32:16;;;;;;;8.38;4.85;;;;;;;25.20;94.46;99336.78;5129324;27;20800;-80
2022/05/10 10:34:50;;;;;;;8.25;5.63;;;;;;;25.27;92.15;99339.56;5128512;27;20205;-82
2022/05/10 10:37:26;;;;;;;9.20;5.28;;;;;;;25.45;90.81;99337.28;5127093;27;20210;-81
2022/05/10 10:40:11;;;;;;;7.50;5.22;;;;;;;25.59;90.21;99324.75;5129155;27;20274;-80
2022/05/10 10:42:49;;;;;;;4.90;4.50;;;;;;;25.73;89.07;99323.88;5065119;28;20307;-81
2022/05/10 10:45:19;;;;;;;7.28;4.78;;;;;;;25.20;95.65;99331.34;5009436;28;20583;-80
2022/05/10 10:47:58;;;;;;;5.30;4.80;;;;;;;25.02;97.70;99322.75;5004704;28;20272;-80
2022/05/10 10:50:28;;;;;;;12.05;5.15;;;;;;;25.28;95.73;99316.81;5004272;28;20194;-80
2022/05/10 10:53:00;;;;;;;5.50;4.97;;;;;;;25.46;95.14;99316.44;4995375;28;20190;-80
2022/05/10 10:55:37;;;;;;;6.45;5.07;;;;;;;24.91;98.58;99313.19;5003647;28;20199;-81
2022/05/10 10:58:19;;;;;;;6.50;5.03;;;;;;;25.31;96.08;99313.75;5008795;28;20229;-81
2022/05/10 11:00:56;;;;;;;6.85;5.25;;;;;;;25.46;91.86;99308.28;5037209;28;20191;-81
2022/05/10 11:03:32;;;;;;;9.70;5.38;;;;;;;25.49;91.57;99303.34;5099132;27;20189;-80
2022/05/10 11:06:18;;;;;;;8.52;5.10;;;;;;;25.25;89.88;99300.94;5124752;27;20266;-80
2022/05/10 11:09:25;;;;;;;11.27;5.78;;;;;;;25.14;90.97;99298.72;5126362;27;20198;-80
2022/05/10 11:12:23;;;;;;;8.52;6.07;;;;;;;25.72;91.73;99288.81;5128006;27;20202;-81
2022/05/10 11:15:04;;;;;;;6.03;5.45;;;;;;;25.71;93.99;99282.53;5127207;27;20194;-81
2022/05/10 11:17:50;;;;;;;5.90;5.40;;;;;;;25.24;96.58;99291.97;5127976;27;20296;-80
2022/05/10 11:20:26;;;;;;;6.13;5.03;;;;;;;25.65;89.10;99278.69;5123516;27;20182;-81
2022/05/10 11:22:59;;;;;;;6.70;6.00;;;;;;;25.76;87.99;99281.94;5124827;27;20646;-80
2022/05/10 11:25:51;;;;;;;8.68;6.53;;;;;;;25.68;88.26;99281.03;5124275;27;20205;-81
2022/05/10 11:28:38;;;;;;;8.80;6.00;;;;;;;25.62;92.67;99281.78;5127212;27;20677;-80
2022/05/10 11:31:12;;;;;;;6.53;5.93;;;;;;;24.45;100.00;99264.56;5123241;27;20197;-80
2022/05/10 11:33:56;;;;;;;9.70;6.15;;;;;;;25.08;100.00;99271.31;5122794;27;20196;-80
2022/05/10 11:36:38;;;;;;;6.95;6.20;;;;;;;25.99;95.70;99273.63;5137084;28;20218;-81
2022/05/10 11:39:41;;;;;;;7.43;5.43;;;;;;;25.99;85.57;99271.75;5126041;28;20201;-81
2022/05/10 11:42:24;;;;;;;7.32;5.85;;;;;;;24.80;93.90;99273.84;5115042;28;20225;-80
2022/05/10 11:45:19;;;;;;;6.60;5.97;;;;;;;24.59;93.36;99262.88;5129341;28;20189;-81
2022/05/10 11:48:14;;;;;;;7.93;5.43;;;;;;;25.16;90.08;99262.25;5128187;28;20191;-80
2022/05/10 11:54:48;;;;;;;6.05;5.40;;;;;;;26.04;88.21;99241.28;5091063;28;20195;-80
2022/05/10 11:57:20;;;;;;;6.20;5.68;;;;;;;26.07;85.42;99244.47;5082105;28;20247;-81
2022/05/10 11:59:48;;;;;;;9.40;6.10;;;;;;;26.25;79.41;99241.28;5088132;28;20222;-81
2022/05/10 12:02:49;;;;;;;7.57;5.70;;;;;;;26.51;79.28;99235.22;5078814;28;20301;-81
2022/05/10 12:05:36;;;;;;;6.63;5.63;;;;;;;26.95;74.92;99234.84;5086170;28;20222;-80
2022/05/10 12:08:07;;;;;;;8.27;6.07;;;;;;;27.07;74.67;99227.81;5085877;28;20200;-81
2022/05/10 12:10:42;;;;;;;7.93;5.90;;;;;;;27.36;75.94;99213.06;5092163;28;20280;-80
2022/05/10 12:22:08;;;;;;;8.48;5.80;;;;;;;26.41;76.72;99204.84;5074380;28;20219;-81
2022/05/10 12:24:44;;;;;;;8.13;5.38;;;;;;;26.73;76.65;99204.22;5072011;28;20197;-81